Time;durP1;ratioP1;P1;durP2;ratioP2;P2;SDS_P1;SDS_P2;PMS_P1;PMS_P2;Temp;Humidity;BMP_temperature;BMP_pressure;BME280_temperature;BME280_humidity;BME280_pressure;Samples;Min_cycle;Max_cycle;Signal;HPM_P1;HPM_P2
2022/12/01 00:00:42;;;;;;;86.82;37.22;;;6.00;99.90;;;;;;5129954;27;20155;-83
2022/12/01 00:03:08;;;;;;;76.70;35.30;;;6.70;99.90;;;;;;5096784;27;20221;-83
2022/12/01 00:05:34;;;;;;;85.90;36.72;;;6.00;99.90;;;;;;5112183;27;20042;-83
2022/12/01 00:08:00;;;;;;;84.57;35.67;;;6.60;99.90;;;;;;5131105;27;20042;-82
2022/12/01 00:10:27;;;;;;;83.90;36.65;;;6.00;99.90;;;;;;5095404;27;20090;-82
2022/12/01 00:12:57;;;;;;;85.57;37.17;;;6.20;99.90;;;;;;5130477;27;20057;-83
2022/12/01 00:15:28;;;;;;;85.30;37.83;;;6.00;99.90;;;;;;5129850;27;20564;-83
2022/12/01 00:17:54;;;;;;;92.25;37.25;;;6.00;99.90;;;;;;5129329;27;20497;-83
2022/12/01 00:20:20;;;;;;;80.43;34.13;;;6.00;99.90;;;;;;5113418;27;20042;-82
2022/12/01 00:22:46;;;;;;;81.68;36.13;;;6.00;99.90;;;;;;5112484;27;20090;-81
2022/12/01 00:25:14;;;;;;;87.95;36.35;;;6.00;99.90;;;;;;5130563;27;20046;-82
2022/12/01 00:27:40;;;;;;;84.88;38.25;;;6.00;99.90;;;;;;5112924;27;20550;-81
2022/12/01 00:30:09;;;;;;;83.75;36.80;;;6.00;99.90;;;;;;5113239;27;20074;-81
2022/12/01 00:32:35;;;;;;;94.70;36.05;;;6.00;99.90;;;;;;5112727;27;20050;-81
2022/12/01 00:35:01;;;;;;;86.05;36.33;;;6.00;99.90;;;;;;5112293;27;20472;-81
2022/12/01 00:37:29;;;;;;;82.97;36.03;;;6.00;99.90;;;;;;5096265;27;20046;-81
2022/12/01 00:39:56;;;;;;;90.75;36.28;;;6.00;99.90;;;;;;5095044;27;20103;-82
2022/12/01 00:42:22;;;;;;;96.15;39.15;;;6.00;99.90;;;;;;5113345;27;20126;-82
2022/12/01 00:44:47;;;;;;;93.82;38.80;;;6.00;99.90;;;;;;5111699;27;20138;-82
2022/12/01 00:47:13;;;;;;;84.35;35.78;;;6.00;99.90;;;;;;5078750;27;20046;-82
2022/12/01 00:49:39;;;;;;;89.80;37.92;;;6.00;99.90;;;;;;5111507;27;20078;-81
2022/12/01 00:52:05;;;;;;;80.57;37.40;;;6.50;99.90;;;;;;5095273;27;20133;-82
2022/12/01 00:54:33;;;;;;;87.78;37.67;;;6.00;99.90;;;;;;5129582;27;20153;-82
2022/12/01 00:56:59;;;;;;;93.03;39.97;;;6.00;99.90;;;;;;5127549;27;20126;-82
2022/12/01 00:59:25;;;;;;;80.78;35.75;;;6.00;99.90;;;;;;5112826;27;20184;-82
2022/12/01 01:01:51;;;;;;;90.97;39.00;;;6.00;99.90;;;;;;5128634;27;20629;-82
2022/12/01 01:04:17;;;;;;;93.07;38.03;;;6.00;99.90;;;;;;5112851;27;20517;-82
2022/12/01 01:06:43;;;;;;;97.80;38.83;;;6.00;99.90;;;;;;5094835;27;20049;-82
2022/12/01 01:09:10;;;;;;;90.35;39.38;;;6.00;99.90;;;;;;5129166;27;20121;-82
2022/12/01 01:11:36;;;;;;;91.82;40.42;;;6.80;99.90;;;;;;5111712;27;20046;-82
2022/12/01 01:14:02;;;;;;;96.85;39.42;;;6.00;99.90;;;;;;5093955;27;20045;-82
2022/12/01 01:16:28;;;;;;;97.43;38.58;;;6.90;99.90;;;;;;5111611;27;20043;-82
2022/12/01 01:18:54;;;;;;;97.07;38.40;;;7.00;99.90;;;;;;5094044;27;20108;-82
2022/12/01 01:21:21;;;;;;;88.32;39.38;;;6.00;99.90;;;;;;5112438;27;20069;-82
2022/12/01 01:23:48;;;;;;;88.80;39.00;;;6.00;99.90;;;;;;5094135;27;20050;-82
2022/12/01 01:26:18;;;;;;;96.43;38.83;;;6.00;99.90;;;;;;5111635;27;20046;-82
2022/12/01 01:28:44;;;;;;;89.38;39.03;;;6.90;99.90;;;;;;5110974;27;20042;-82
2022/12/01 01:31:12;;;;;;;86.85;37.35;;;6.00;99.90;;;;;;5128660;27;20031;-82
2022/12/01 01:33:38;;;;;;;92.18;40.90;;;6.00;99.90;;;;;;5128289;27;20050;-82
2022/12/01 01:36:04;;;;;;;89.35;38.58;;;6.60;99.90;;;;;;5110500;27;20043;-82
2022/12/01 01:38:31;;;;;;;94.00;38.28;;;6.00;99.90;;;;;;5112205;27;20038;-82
2022/12/01 01:40:56;;;;;;;94.25;38.90;;;6.00;99.90;;;;;;5127453;27;20115;-83
2022/12/01 01:43:37;;;;;;;91.28;37.65;;;6.00;99.90;;;;;;5112349;27;20480;-83
2022/12/01 01:46:09;;;;;;;86.18;37.58;;;6.00;99.90;;;;;;5128267;27;20050;-82
2022/12/01 01:48:37;;;;;;;88.22;38.47;;;6.70;99.90;;;;;;5110649;27;20042;-83
2022/12/01 01:51:03;;;;;;;88.85;39.20;;;6.30;99.90;;;;;;5124821;27;20135;-82
2022/12/01 01:53:30;;;;;;;89.97;38.13;;;6.20;99.90;;;;;;5106248;27;20051;-82
2022/12/01 01:55:56;;;;;;;91.95;38.13;;;6.00;99.90;;;;;;5091670;27;20043;-82
2022/12/01 01:58:22;;;;;;;85.07;36.97;;;6.00;99.90;;;;;;5106722;27;20043;-82
2022/12/01 02:00:48;;;;;;;84.93;38.00;;;6.00;99.90;;;;;;5107714;27;20203;-82
2022/12/01 02:03:17;;;;;;;94.90;39.53;;;6.00;99.90;;;;;;5090571;27;20084;-82
2022/12/01 02:05:46;;;;;;;86.68;37.90;;;6.70;99.90;;;;;;5123754;27;20138;-82
2022/12/01 02:08:12;;;;;;;83.93;37.65;;;6.00;99.90;;;;;;5090960;27;20511;-82
2022/12/01 02:11:02;;;;;;;87.15;37.60;;;6.00;99.90;;;;;;5123892;27;20043;-82
2022/12/01 02:13:28;;;;;;;90.15;36.58;;;6.00;99.90;;;;;;5125125;27;20129;-82
2022/12/01 02:16:07;;;;;;;99.65;38.58;;;6.00;99.90;;;;;;5124587;27;20118;-82
2022/12/01 02:18:57;;;;;;;91.95;38.33;;;6.00;99.90;;;;;;5124449;27;20047;-82
2022/12/01 02:22:01;;;;;;;92.75;39.60;;;6.70;99.90;;;;;;5125257;28;20035;-83
2022/12/01 02:24:43;;;;;;;65.60;27.35;;;5.90;99.90;;;;;;5106971;28;20078;-82
2022/12/01 02:27:33;;;;;;;89.15;38.90;;;6.00;99.90;;;;;;5124915;28;20471;-83
2022/12/01 02:30:01;;;;;;;96.90;39.75;;;6.00;99.90;;;;;;5108101;28;20043;-82
2022/12/01 02:32:30;;;;;;;91.95;38.83;;;6.00;99.90;;;;;;5106033;28;20395;-82
2022/12/01 02:35:13;;;;;;;94.18;38.30;;;6.00;99.90;;;;;;5124743;28;20133;-82
2022/12/01 02:38:07;;;;;;;95.00;38.83;;;6.00;99.90;;;;;;5107124;28;20074;-82
2022/12/01 02:40:42;;;;;;;83.38;37.03;;;6.00;99.90;;;;;;5123711;28;20043;-82
2022/12/01 02:43:13;;;;;;;93.63;41.20;;;6.00;99.90;;;;;;5124820;28;20092;-82
2022/12/01 02:45:59;;;;;;;94.22;40.67;;;5.30;99.90;;;;;;5122953;28;20043;-82
2022/12/01 02:48:32;;;;;;;91.60;40.58;;;6.00;99.90;;;;;;5108014;28;20406;-82
2022/12/01 02:51:03;;;;;;;89.60;39.20;;;6.00;99.90;;;;;;5107145;28;20093;-82
2022/12/01 02:53:29;;;;;;;91.15;39.00;;;5.90;99.90;;;;;;5123597;28;20039;-82
2022/12/01 02:55:57;;;;;;;90.57;39.92;;;5.00;99.90;;;;;;5125570;28;20051;-83
2022/12/01 02:58:23;;;;;;;94.40;39.45;;;6.10;99.90;;;;;;5106273;28;20439;-83
2022/12/01 03:01:07;;;;;;;99.28;40.75;;;5.90;99.90;;;;;;5125141;28;20051;-82
2022/12/01 03:03:44;;;;;;;96.65;38.50;;;5.90;99.90;;;;;;5106898;28;20389;-83
2022/12/01 03:06:21;;;;;;;93.53;38.20;;;6.00;99.90;;;;;;5123737;28;20074;-82
2022/12/01 03:09:05;;;;;;;94.20;38.10;;;6.40;99.90;;;;;;5125556;28;20307;-82
2022/12/01 03:11:55;;;;;;;93.60;38.75;;;5.90;99.90;;;;;;5123124;28;20047;-82
2022/12/01 03:14:41;;;;;;;93.20;40.22;;;6.00;99.90;;;;;;5124338;28;20125;-82
2022/12/01 03:17:14;;;;;;;90.70;38.22;;;6.00;99.90;;;;;;5107717;28;20047;-82
2022/12/01 03:19:44;;;;;;;;;;;5.90;99.90;;;;;;5124792;27;20035;-82
2022/12/01 03:22:36;;;;;;;86.80;35.60;;;5.90;99.90;;;;;;5128328;27;19920;-82
2022/12/01 03:25:03;;;;;;;91.07;38.95;;;5.90;99.90;;;;;;5110143;27;20042;-83
2022/12/01 03:27:33;;;;;;;94.45;40.55;;;5.90;99.90;;;;;;5110752;27;20066;-82
2022/12/01 03:30:01;;;;;;;89.38;37.20;;;7.10;99.90;;;;;;5127914;27;20085;-82
2022/12/01 03:32:39;;;;;;;89.10;38.40;;;5.90;99.90;;;;;;5109677;27;20428;-82
2022/12/01 03:35:09;;;;;;;97.13;40.78;;;6.10;99.90;;;;;;5111302;27;20167;-82
2022/12/01 03:37:39;;;;;;;94.50;39.10;;;5.90;99.90;;;;;;5127198;27;20510;-82
2022/12/01 03:40:17;;;;;;;99.75;41.53;;;7.00;99.90;;;;;;5127249;27;20039;-81
2022/12/01 03:42:57;;;;;;;94.10;38.88;;;5.90;99.90;;;;;;5127288;27;20043;-82
2022/12/01 03:45:35;;;;;;;93.22;38.17;;;5.90;99.90;;;;;;5126463;27;20035;-82
2022/12/01 03:48:01;;;;;;;85.20;37.70;;;5.90;99.90;;;;;;5110542;27;20134;-82
2022/12/01 03:50:42;;;;;;;91.22;39.40;;;6.60;99.90;;;;;;5126013;27;20062;-82
2022/12/01 03:53:19;;;;;;;90.78;37.80;;;6.70;99.90;;;;;;5110409;27;20417;-82
2022/12/01 03:55:50;;;;;;;88.10;37.42;;;6.70;99.90;;;;;;5110455;27;20050;-81
2022/12/01 03:58:22;;;;;;;92.22;38.33;;;6.70;99.90;;;;;;5109714;27;20062;-81
2022/12/01 04:00:52;;;;;;;93.15;39.92;;;5.90;99.90;;;;;;5128102;27;20078;-81
2022/12/01 04:03:23;;;;;;;99.30;39.67;;;5.90;99.90;;;;;;5108846;27;20130;-81
2022/12/01 04:05:49;;;;;;;90.05;38.00;;;5.90;99.90;;;;;;5110024;27;20035;-81
2022/12/01 04:08:15;;;;;;;88.85;38.03;;;5.90;99.90;;;;;;5109432;27;20043;-81
2022/12/01 04:10:41;;;;;;;96.70;40.35;;;6.80;99.90;;;;;;5109601;27;20443;-81
2022/12/01 04:13:14;;;;;;;94.80;38.50;;;5.90;99.90;;;;;;5127363;27;20047;-81
2022/12/01 04:15:40;;;;;;;96.78;38.97;;;5.90;99.90;;;;;;5108625;27;20084;-81
2022/12/01 04:18:06;;;;;;;91.65;38.15;;;5.90;99.90;;;;;;5110407;27;20054;-81
2022/12/01 04:20:32;;;;;;;79.20;36.17;;;5.90;99.90;;;;;;5125365;27;20086;-81
2022/12/01 04:22:57;;;;;;;90.07;37.35;;;5.90;99.90;;;;;;5127310;27;20051;-81
2022/12/01 04:25:23;;;;;;;91.75;39.33;;;5.90;99.90;;;;;;5092077;27;20039;-81
2022/12/01 04:27:48;;;;;;;91.55;38.50;;;6.20;99.90;;;;;;5092671;27;20042;-81
2022/12/01 04:30:14;;;;;;;82.25;36.38;;;6.90;99.90;;;;;;5126353;27;20046;-81
2022/12/01 04:32:42;;;;;;;86.30;38.15;;;5.90;99.90;;;;;;5125393;27;20039;-81
2022/12/01 04:35:09;;;;;;;92.25;37.15;;;6.50;99.90;;;;;;5110140;27;20561;-82
2022/12/01 04:37:35;;;;;;;85.97;37.70;;;5.90;99.90;;;;;;5108082;27;20047;-82
2022/12/01 04:40:01;;;;;;;88.95;37.70;;;7.00;99.90;;;;;;5109992;27;20070;-81
2022/12/01 04:42:26;;;;;;;88.28;37.58;;;5.90;99.90;;;;;;5091459;27;20501;-81
2022/12/01 04:44:52;;;;;;;94.15;37.67;;;6.30;99.90;;;;;;5092988;27;20043;-82
2022/12/01 04:47:18;;;;;;;81.07;37.42;;;5.90;99.90;;;;;;5108607;27;20039;-82
2022/12/01 04:49:43;;;;;;;84.18;37.47;;;5.90;99.90;;;;;;5093386;27;20086;-81
2022/12/01 04:52:09;;;;;;;92.75;37.75;;;5.90;99.90;;;;;;5130013;27;20428;-81
2022/12/01 04:54:35;;;;;;;87.00;38.83;;;5.90;99.90;;;;;;5094033;27;20038;-81
2022/12/01 04:57:00;;;;;;;89.00;38.45;;;5.90;99.90;;;;;;5130032;27;20039;-81
2022/12/01 04:59:26;;;;;;;91.05;36.50;;;5.90;99.90;;;;;;5111184;27;20038;-81
2022/12/01 05:01:52;;;;;;;81.95;37.25;;;6.40;99.90;;;;;;5112765;27;20049;-81
2022/12/01 05:04:18;;;;;;;87.90;37.35;;;5.90;99.90;;;;;;5094338;27;20045;-81
2022/12/01 05:06:43;;;;;;;77.25;34.85;;;6.10;99.90;;;;;;5112259;27;20059;-81
2022/12/01 05:09:13;;;;;;;86.53;36.90;;;5.70;99.90;;;;;;5111974;27;20042;-80
2022/12/01 05:11:38;;;;;;;85.13;35.50;;;5.70;99.90;;;;;;5110336;27;20055;-81
2022/12/01 05:14:05;;;;;;;87.88;37.35;;;5.60;99.90;;;;;;5095612;27;20042;-81
2022/12/01 05:16:32;;;;;;;80.65;35.67;;;5.50;99.90;;;;;;5110575;27;20042;-81
2022/12/01 05:21:47;;;;;;;76.07;33.45;;;5.30;99.90;;;;;;5128607;27;20106;-81
2022/12/01 05:24:14;;;;;;;76.68;35.72;;;6.30;99.90;;;;;;5111243;27;20122;-82
2022/12/01 05:26:41;;;;;;;81.30;32.83;;;5.10;99.90;;;;;;5129015;27;20058;-83
2022/12/01 05:29:07;;;;;;;79.18;34.20;;;5.00;99.90;;;;;;5109834;27;20183;-81
2022/12/01 05:31:33;;;;;;;78.63;34.92;;;5.80;99.90;;;;;;5095537;27;20046;-81
2022/12/01 05:33:59;;;;;;;80.68;33.67;;;5.50;99.90;;;;;;5093452;27;20114;-81
2022/12/01 05:36:25;;;;;;;85.35;35.42;;;5.30;99.90;;;;;;5129660;27;20042;-81
2022/12/01 05:38:50;;;;;;;78.15;33.72;;;5.40;99.90;;;;;;5128569;27;20123;-81
2022/12/01 05:41:16;;;;;;;77.35;33.50;;;4.60;99.90;;;;;;5110942;27;20050;-81
2022/12/01 05:43:42;;;;;;;71.72;31.77;;;4.50;99.90;;;;;;5111230;27;20085;-81
2022/12/01 05:46:07;;;;;;;76.38;31.85;;;5.30;99.90;;;;;;5127841;27;20042;-81
2022/12/01 05:48:33;;;;;;;69.43;31.80;;;4.40;99.90;;;;;;5095082;27;20143;-82
2022/12/01 05:50:59;;;;;;;75.45;32.55;;;4.30;99.90;;;;;;5093495;27;20125;-82
2022/12/01 05:53:25;;;;;;;72.82;32.78;;;4.20;99.90;;;;;;5112204;27;20087;-82
2022/12/01 05:55:53;;;;;;;82.82;33.17;;;4.10;99.90;;;;;;5110504;27;20047;-82
2022/12/01 05:58:19;;;;;;;74.97;31.42;;;4.00;99.90;;;;;;5128559;27;20042;-81
2022/12/01 06:00:44;;;;;;;82.38;34.28;;;4.00;99.90;;;;;;5111683;27;20047;-80
2022/12/01 06:03:10;;;;;;;64.55;30.40;;;3.90;99.90;;;;;;5111006;27;20039;-80
2022/12/01 06:05:36;;;;;;;71.35;31.48;;;3.90;99.90;;;;;;5129276;27;20070;-79
2022/12/01 06:08:01;;;;;;;66.85;28.40;;;3.80;99.90;;;;;;5110208;27;20125;-79
2022/12/01 06:10:27;;;;;;;77.80;30.75;;;3.80;99.90;;;;;;5129022;27;20044;-80
2022/12/01 06:12:52;;;;;;;72.15;30.23;;;3.80;99.90;;;;;;5110207;27;20097;-80
2022/12/01 06:15:18;;;;;;;67.82;29.27;;;3.80;99.90;;;;;;5111671;27;20067;-79
2022/12/01 06:17:44;;;;;;;68.70;29.00;;;3.70;99.90;;;;;;5110628;27;20069;-81
2022/12/01 06:20:10;;;;;;;68.80;29.88;;;3.70;99.90;;;;;;5128283;27;20511;-81
2022/12/01 06:22:36;;;;;;;65.07;30.63;;;3.60;99.90;;;;;;5111568;27;20054;-81
2022/12/01 06:25:02;;;;;;;70.38;30.15;;;3.70;99.90;;;;;;5126785;27;20055;-82
2022/12/01 06:27:28;;;;;;;64.63;27.38;;;3.70;99.90;;;;;;5111164;27;20042;-81
2022/12/01 06:29:53;;;;;;;74.65;32.00;;;3.60;99.90;;;;;;5092993;27;20126;-81
2022/12/01 06:32:19;;;;;;;61.92;29.15;;;4.30;99.90;;;;;;5111687;27;20490;-80
2022/12/01 06:34:45;;;;;;;67.90;26.23;;;3.70;99.90;;;;;;5127328;27;20470;-82
2022/12/01 06:37:11;;;;;;;66.82;26.90;;;3.70;99.90;;;;;;5111033;27;20050;-81
2022/12/01 06:39:37;;;;;;;74.53;28.52;;;3.60;99.90;;;;;;5128062;27;20053;-81
2022/12/01 06:42:03;;;;;;;172.77;28.77;;;3.60;99.90;;;;;;5110047;27;20043;-80
2022/12/01 06:44:28;;;;;;;68.97;24.25;;;3.60;99.90;;;;;;5111482;27;20590;-80
2022/12/01 06:46:55;;;;;;;75.70;23.58;;;3.60;99.90;;;;;;5092961;27;20039;-80
2022/12/01 06:49:21;;;;;;;58.30;20.70;;;3.60;99.90;;;;;;5094476;27;20039;-79
2022/12/01 06:51:48;;;;;;;89.75;22.73;;;3.60;99.90;;;;;;5126376;27;20066;-81
2022/12/01 06:54:14;;;;;;;83.20;22.67;;;3.50;99.90;;;;;;5111804;27;20078;-79
2022/12/01 06:56:41;;;;;;;46.25;21.90;;;3.50;99.90;;;;;;5097655;27;20039;-80
2022/12/01 06:59:07;;;;;;;97.72;23.90;;;3.40;99.90;;;;;;5113813;27;20053;-80
2022/12/01 07:01:33;;;;;;;53.13;22.58;;;3.40;99.90;;;;;;5115596;27;20397;-79
2022/12/01 07:03:59;;;;;;;53.97;21.70;;;3.30;99.90;;;;;;5113357;27;20046;-79
2022/12/01 07:06:24;;;;;;;46.65;21.40;;;3.30;99.90;;;;;;5132468;27;20224;-79
2022/12/01 07:08:51;;;;;;;37.55;17.83;;;3.30;99.90;;;;;;5096423;27;20035;-79
2022/12/01 07:11:17;;;;;;;39.70;18.17;;;3.20;99.90;;;;;;5132167;27;20069;-79
2022/12/01 07:13:44;;;;;;;33.78;16.65;;;3.10;99.90;;;;;;5131271;27;20034;-79
2022/12/01 07:16:10;;;;;;;31.95;16.20;;;3.10;99.90;;;;;;5113943;27;20421;-79
2022/12/01 07:18:37;;;;;;;28.95;15.32;;;3.00;99.90;;;;;;5131663;27;20141;-79
2022/12/01 07:21:09;;;;;;;30.13;15.38;;;3.10;99.90;;;;;;5129744;27;20039;-79
2022/12/01 07:23:35;;;;;;;29.58;13.85;;;3.00;99.90;;;;;;5131906;27;20503;-79
2022/12/01 07:26:06;;;;;;;25.63;14.20;;;3.00;99.90;;;;;;5129867;27;20062;-79
2022/12/01 07:28:33;;;;;;;25.13;12.95;;;2.90;99.90;;;;;;5114469;27;20053;-80
2022/12/01 07:31:23;;;;;;;24.10;12.90;;;3.30;99.90;;;;;;5113891;27;20039;-79
2022/12/01 07:33:49;;;;;;;26.58;12.77;;;2.80;99.90;;;;;;5111731;27;20517;-80
2022/12/01 07:36:14;;;;;;;21.83;12.57;;;2.80;99.90;;;;;;5114662;27;20035;-80
2022/12/01 07:38:40;;;;;;;32.95;16.52;;;2.80;99.90;;;;;;5079227;27;20050;-79
2022/12/01 07:41:14;;;;;;;28.80;16.17;;;2.80;99.90;;;;;;5115035;27;20043;-80
2022/12/01 07:43:40;;;;;;;31.63;15.48;;;2.70;99.90;;;;;;5113150;27;20045;-80
2022/12/01 07:46:12;;;;;;;23.80;13.05;;;2.70;99.90;;;;;;5113184;27;20511;-80
2022/12/01 07:48:39;;;;;;;22.83;13.52;;;2.70;99.90;;;;;;5113644;27;20042;-80
2022/12/01 07:51:06;;;;;;;23.52;13.75;;;2.60;99.90;;;;;;5125799;27;20039;-80
2022/12/01 07:53:32;;;;;;;23.17;12.55;;;2.60;99.90;;;;;;5110609;27;20078;-80
2022/12/01 07:55:59;;;;;;;22.20;12.20;;;2.70;99.90;;;;;;5091565;27;20083;-80
2022/12/01 07:58:25;;;;;;;20.70;12.13;;;2.50;99.90;;;;;;5127573;27;20031;-80
2022/12/01 08:00:51;;;;;;;23.60;12.98;;;2.50;99.90;;;;;;5092860;27;20051;-80
2022/12/01 08:03:17;;;;;;;25.45;12.82;;;2.50;99.90;;;;;;5110340;27;20050;-80
2022/12/01 08:05:43;;;;;;;22.60;12.00;;;2.50;99.90;;;;;;5109755;27;20043;-80
2022/12/01 08:08:09;;;;;;;27.98;13.77;;;2.50;99.90;;;;;;5108438;27;20482;-80
2022/12/01 08:10:35;;;;;;;26.80;13.15;;;2.50;99.90;;;;;;5127150;27;20039;-80
2022/12/01 08:13:00;;;;;;;26.10;13.25;;;2.50;99.90;;;;;;5108897;27;20047;-80
2022/12/01 08:15:26;;;;;;;32.22;13.20;;;2.40;99.90;;;;;;5110522;27;20043;-80
2022/12/01 08:17:52;;;;;;;24.08;13.13;;;2.50;99.90;;;;;;5108948;27;20074;-80
2022/12/01 08:20:17;;;;;;;24.60;12.23;;;2.50;99.90;;;;;;5109507;27;20039;-79
2022/12/01 08:22:43;;;;;;;23.08;12.45;;;2.50;99.90;;;;;;5126675;27;20043;-80
2022/12/01 08:25:09;;;;;;;23.40;12.85;;;2.50;99.90;;;;;;5125288;27;20039;-80
2022/12/01 08:27:35;;;;;;;25.50;13.85;;;2.50;99.90;;;;;;5092607;27;20043;-79
2022/12/01 08:30:01;;;;;;;26.42;13.80;;;2.50;99.90;;;;;;5125552;27;20039;-80
2022/12/01 08:32:28;;;;;;;25.58;13.23;;;2.50;99.90;;;;;;5127286;27;20228;-80
2022/12/01 08:34:54;;;;;;;23.23;12.73;;;2.50;99.90;;;;;;5125104;27;20494;-79
2022/12/01 08:37:20;;;;;;;21.77;12.43;;;2.50;99.90;;;;;;5126522;27;20046;-80
2022/12/01 08:39:45;;;;;;;19.17;12.05;;;2.50;99.90;;;;;;5108723;27;20043;-79
2022/12/01 08:42:11;;;;;;;30.73;14.65;;;3.00;99.90;;;;;;5108197;27;20673;-80
2022/12/01 08:44:37;;;;;;;28.55;14.77;;;2.60;99.90;;;;;;5092283;27;20073;-80
2022/12/01 08:47:03;;;;;;;31.38;15.48;;;2.60;99.90;;;;;;5107843;27;20122;-80
2022/12/01 08:49:29;;;;;;;29.60;16.48;;;2.60;99.90;;;;;;5092615;27;20050;-80
2022/12/01 08:51:55;;;;;;;28.55;16.15;;;2.70;99.90;;;;;;5144445;27;20122;-79
2022/12/01 08:54:21;;;;;;;32.13;15.13;;;2.90;99.90;;;;;;5129354;27;20335;-80
2022/12/01 08:56:47;;;;;;;48.58;26.95;;;2.90;99.90;;;;;;5129292;27;20043;-80
2022/12/01 08:59:13;;;;;;;36.85;21.58;;;4.00;99.90;;;;;;5128905;27;20058;-80
2022/12/01 09:01:51;;;;;;;35.20;18.98;;;3.00;99.90;;;;;;5129580;27;20089;-80
2022/12/01 09:04:19;;;;;;;29.92;16.08;;;3.10;99.90;;;;;;5128128;27;20103;-80
2022/12/01 09:06:46;;;;;;;31.30;15.57;;;3.20;99.90;;;;;;5112518;27;20042;-80
2022/12/01 09:09:24;;;;;;;30.40;17.45;;;3.80;99.90;;;;;;5094970;27;20038;-80
2022/12/01 09:11:51;;;;;;;27.85;16.13;;;3.30;99.90;;;;;;5129354;27;20500;-80
2022/12/01 09:14:18;;;;;;;26.50;14.40;;;3.40;99.90;;;;;;5114096;27;20042;-80
2022/12/01 09:16:46;;;;;;;27.98;15.45;;;3.50;99.90;;;;;;5130001;27;20047;-80
2022/12/01 09:19:13;;;;;;;25.48;15.00;;;3.60;99.90;;;;;;5150917;27;20046;-80
2022/12/01 09:21:41;;;;;;;26.50;14.70;;;3.60;99.90;;;;;;5147646;27;20143;-79
2022/12/01 09:24:09;;;;;;;30.80;15.00;;;4.50;99.90;;;;;;5113929;27;20125;-79
2022/12/01 09:26:34;;;;;;;27.38;13.45;;;3.80;99.90;;;;;;5128057;27;20093;-80
2022/12/01 09:29:06;;;;;;;27.33;15.75;;;4.00;99.90;;;;;;5128451;27;20078;-80
2022/12/01 09:31:32;;;;;;;27.38;14.52;;;4.00;99.90;;;;;;5129030;27;20102;-80
2022/12/01 09:34:00;;;;;;;25.98;14.65;;;4.10;99.90;;;;;;5110919;27;20504;-80
2022/12/01 09:36:27;;;;;;;23.17;14.00;;;4.30;99.90;;;;;;5129474;27;20058;-80
2022/12/01 09:38:53;;;;;;;24.65;13.88;;;4.80;99.90;;;;;;5127740;27;20402;-80
2022/12/01 09:41:27;;;;;;;27.63;16.63;;;4.50;99.90;;;;;;5112103;27;20034;-80
2022/12/01 09:44:01;;;;;;;26.70;14.20;;;4.70;99.90;;;;;;5111190;27;20078;-80
2022/12/01 09:46:36;;;;;;;23.50;13.70;;;4.80;99.90;;;;;;5128137;27;20038;-80
2022/12/01 09:49:05;;;;;;;28.02;14.88;;;4.90;99.90;;;;;;5129244;27;20046;-80
2022/12/01 09:51:34;;;;;;;27.98;13.85;;;5.00;99.90;;;;;;5110096;27;20544;-80
2022/12/01 09:54:00;;;;;;;25.33;14.13;;;6.20;99.90;;;;;;5128871;27;20047;-80
2022/12/01 09:56:35;;;;;;;23.85;14.35;;;5.20;99.90;;;;;;5127824;27;20045;-80
2022/12/01 09:59:06;;;;;;;27.35;14.50;;;5.30;99.90;;;;;;5128679;27;20047;-82
2022/12/01 10:01:36;;;;;;;29.95;14.65;;;5.40;99.90;;;;;;5111974;27;20118;-80
2022/12/01 10:04:21;;;;;;;24.23;14.02;;;5.50;99.90;;;;;;5110557;27;20042;-78
2022/12/01 10:07:24;;;;;;;26.92;13.82;;;5.70;99.90;;;;;;5129263;27;20035;-78
2022/12/01 10:09:59;;;;;;;24.35;14.38;;;5.80;99.90;;;;;;5075940;27;20101;-79
2022/12/01 10:12:31;;;;;;;26.85;14.57;;;5.80;99.90;;;;;;5127241;27;20512;-79
2022/12/01 10:15:12;;;;;;;28.25;16.27;;;6.20;99.90;;;;;;5129140;27;20434;-79
2022/12/01 10:18:01;;;;;;;31.25;16.00;;;6.10;99.90;;;;;;5127241;27;20050;-80
2022/12/01 10:21:02;;;;;;;26.60;15.45;;;6.20;99.90;;;;;;5111534;27;20065;-79
2022/12/01 10:24:04;;;;;;;30.35;16.52;;;6.30;99.90;;;;;;5128334;27;20085;-80
2022/12/01 10:26:50;;;;;;;28.70;16.10;;;6.40;99.90;;;;;;5021757;27;20049;-80
2022/12/01 10:29:30;;;;;;;30.95;16.67;;;6.50;99.90;;;;;;5114006;27;20133;-79
2022/12/01 10:31:59;;;;;;;32.90;18.45;;;6.60;99.90;;;;;;5132022;27;20065;-79
2022/12/01 10:34:32;;;;;;;34.80;17.52;;;6.60;99.90;;;;;;5131669;27;20046;-79
2022/12/01 10:36:58;;;;;;;34.13;16.63;;;6.60;99.90;;;;;;5132837;27;20051;-80
2022/12/01 10:39:40;;;;;;;34.83;18.75;;;7.40;99.90;;;;;;5131665;27;20046;-80
2022/12/01 10:42:23;;;;;;;25.90;13.20;;;6.40;99.90;;;;;;5114842;27;20046;-79
2022/12/01 10:44:50;;;;;;;32.78;17.13;;;6.30;99.90;;;;;;5115119;27;20284;-79
2022/12/01 10:47:21;;;;;;;32.30;17.60;;;6.20;99.90;;;;;;5114390;27;20478;-80
2022/12/01 10:49:47;;;;;;;33.33;17.85;;;6.70;99.90;;;;;;5133178;27;20055;-79
2022/12/01 10:52:24;;;;;;;30.30;16.88;;;6.20;99.90;;;;;;5114103;27;20441;-79
2022/12/01 10:54:50;;;;;;;31.30;16.52;;;6.20;99.90;;;;;;5131522;27;20550;-79
2022/12/01 10:57:16;;;;;;;30.95;16.30;;;6.80;99.90;;;;;;5097709;27;20080;-80
2022/12/01 11:00:02;;;;;;;37.25;19.80;;;6.90;99.90;;;;;;5080582;27;20395;-80
2022/12/01 11:02:30;;;;;;;37.88;19.70;;;6.30;99.90;;;;;;5132782;27;20043;-80
2022/12/01 11:05:19;;;;;;;39.30;18.98;;;6.20;99.90;;;;;;5113598;27;20095;-79
2022/12/01 11:07:46;;;;;;;32.00;18.92;;;6.30;99.90;;;;;;5131315;27;20054;-79
2022/12/01 11:10:32;;;;;;;38.47;19.23;;;6.90;99.90;;;;;;5097094;27;20393;-80
2022/12/01 11:13:00;;;;;;;41.00;20.58;;;6.40;99.90;;;;;;5113637;27;20474;-79
2022/12/01 11:15:32;;;;;;;43.80;22.08;;;6.40;99.90;;;;;;5114251;27;20154;-80
2022/12/01 11:18:01;;;;;;;41.73;20.83;;;6.50;99.90;;;;;;5113447;27;20062;-79
2022/12/01 11:20:36;;;;;;;50.92;23.73;;;7.40;99.90;;;;;;5114707;27;20346;-79
2022/12/01 11:23:23;;;;;;;54.15;24.00;;;6.60;99.90;;;;;;5113954;27;20042;-79
2022/12/01 11:26:06;;;;;;;48.67;24.20;;;6.60;99.90;;;;;;5131052;27;20034;-79
2022/12/01 11:28:33;;;;;;;50.58;24.33;;;6.70;99.90;;;;;;5132003;27;20093;-79
2022/12/01 11:31:07;;;;;;;57.47;26.05;;;6.80;99.90;;;;;;5113800;27;20042;-79
2022/12/01 11:33:53;;;;;;;70.90;35.00;;;6.90;99.90;;;;;;5131361;27;20107;-80
2022/12/01 11:36:35;;;;;;;56.33;26.55;;;7.00;99.90;;;;;;5131180;27;20136;-79
2022/12/01 11:39:01;;;;;;;51.58;25.70;;;7.20;99.90;;;;;;5130267;27;20051;-79
2022/12/01 11:41:38;;;;;;;47.53;24.60;;;7.20;99.90;;;;;;5114444;27;20054;-79
2022/12/01 11:44:17;;;;;;;60.40;26.60;;;7.30;99.90;;;;;;5131363;27;20374;-80
2022/12/01 11:46:44;;;;;;;50.10;23.48;;;7.60;99.90;;;;;;5131128;27;20047;-79
2022/12/01 11:49:22;;;;;;;51.50;24.10;;;7.50;99.90;;;;;;5130491;27;20154;-79
2022/12/01 11:51:48;;;;;;;49.95;24.50;;;7.50;99.90;;;;;;5112962;27;20050;-79
2022/12/01 11:54:18;;;;;;;49.95;24.63;;;7.40;99.90;;;;;;5114666;27;20066;-79
2022/12/01 11:56:45;;;;;;;48.13;23.42;;;8.50;99.90;;;;;;5113008;27;20042;-79
2022/12/01 11:59:23;;;;;;;49.10;24.20;;;7.30;99.90;;;;;;5097094;27;20035;-79
2022/12/01 12:02:13;;;;;;;52.92;26.25;;;7.30;99.90;;;;;;5113409;27;20038;-79
2022/12/01 12:04:42;;;;;;;51.08;24.88;;;7.20;99.90;;;;;;5113020;27;20047;-79
2022/12/01 12:07:49;;;;;;;50.08;24.98;;;7.10;99.90;;;;;;5131194;27;20046;-79
2022/12/01 12:10:32;;;;;;;49.25;24.17;;;7.00;99.90;;;;;;5080690;27;20059;-80
2022/12/01 12:13:31;;;;;;;50.97;23.35;;;7.00;99.90;;;;;;5130174;27;20133;-80
2022/12/01 12:16:16;;;;;;;47.00;25.00;;;6.90;99.90;;;;;;5131196;27;20432;-80
2022/12/01 12:19:14;;;;;;;43.92;22.50;;;6.80;99.90;;;;;;5130494;27;20397;-79
2022/12/01 12:22:08;;;;;;;51.45;25.52;;;6.90;99.90;;;;;;5112370;27;20043;-81
2022/12/01 12:24:50;;;;;;;44.15;23.80;;;6.90;99.90;;;;;;5130720;27;20042;-79
2022/12/01 12:27:36;;;;;;;50.33;26.15;;;6.90;99.90;;;;;;5129720;27;20055;-80
2022/12/01 12:30:08;;;;;;;56.15;24.17;;;7.00;99.90;;;;;;5130391;27;20061;-79
2022/12/01 12:33:03;;;;;;;53.00;26.20;;;7.00;99.90;;;;;;5132217;27;20046;-79
2022/12/01 12:35:53;;;;;;;51.53;25.95;;;7.10;99.90;;;;;;5131429;27;20046;-80
2022/12/01 12:38:44;;;;;;;49.88;25.02;;;7.20;99.90;;;;;;5131340;27;20134;-80
2022/12/01 12:41:36;;;;;;;47.38;24.90;;;7.30;99.90;;;;;;5131021;27;20035;-80
2022/12/01 12:44:10;;;;;;;52.47;26.42;;;7.50;99.90;;;;;;5129416;27;20050;-80
2022/12/01 12:47:28;;;;;;;49.10;25.35;;;7.70;99.90;;;;;;5113342;27;20410;-80
2022/12/01 12:50:15;;;;;;;54.03;26.65;;;7.80;99.90;;;;;;5027951;28;20524;-80
2022/12/01 12:52:45;;;;;;;53.30;26.45;;;7.90;99.90;;;;;;5129527;27;20569;-81
2022/12/01 12:55:25;;;;;;;45.13;24.98;;;7.90;99.90;;;;;;5129904;27;20049;-82
2022/12/01 12:58:04;;;;;;;56.10;27.20;;;7.90;99.90;;;;;;5112366;27;20415;-81
2022/12/01 13:00:30;;;;;;;53.53;25.48;;;7.80;99.90;;;;;;5128646;27;20046;-81